KSAA/SAA METAR and TAF weather

Enter ICAO airport designator
Station Type Date Time Source
KSAA METAR 2021/07/26 12:35 UTC NOAA

KSAA 261235Z AUTO 16009KT 10SM CLR 16/05 A3028 RMK AO2


Station Type Date Time Source
KSAA Decoded METAR 2021/07/26 12:35 UTC NOAA

Station name not available
Jul 26, 2021 - 08:35 AM EDT / 2021.07.26 1235 UTC
Wind: from the SSE (160 degrees) at 10 MPH (9 KT):0
Visibility: 10 mile(s):0
Sky conditions: clear
Temperature: 60 F (16 C)
Dew Point: 41 F (5 C)
Relative Humidity: 47%
Pressure (altimeter): 30.28 in. Hg (1025 hPa)
ob: KSAA 261235Z AUTO 16009KT 10SM CLR 16/05 A3028 RMK AO2
cycle: 12

Station Type Date Time Source
KSAA TAF UTC NOAA

Error!

Example: see airport list